createdAt,value
2022-11-12T00:01:29.090Z,6.88
2022-11-12T00:04:14.895Z,7.05
2022-11-12T00:07:00.752Z,6.43
2022-11-12T00:09:46.506Z,5.93
2022-11-12T00:12:32.566Z,7.35
2022-11-12T00:15:18.328Z,6.70
2022-11-12T00:18:04.436Z,7.47
2022-11-12T00:20:50.089Z,6.82
2022-11-12T00:23:35.990Z,6.93
2022-11-12T00:26:21.480Z,6.10
2022-11-12T00:29:07.266Z,5.60
2022-11-12T00:31:53.107Z,5.25
2022-11-12T00:34:39.067Z,5.32
2022-11-12T00:37:25.240Z,6.18
2022-11-12T00:40:11.363Z,6.03
2022-11-12T00:42:57.116Z,5.20
2022-11-12T00:45:43.789Z,5.90
2022-11-12T00:48:29.792Z,5.45
2022-11-12T00:51:15.529Z,5.63
2022-11-12T00:54:01.488Z,5.25
2022-11-12T00:56:48.205Z,6.53
2022-11-12T00:59:33.897Z,5.35
2022-11-12T01:02:20.603Z,6.30
2022-11-12T01:05:06.486Z,5.57
2022-11-12T01:07:55.998Z,6.57
2022-11-12T01:10:42.053Z,5.88
2022-11-12T01:13:27.862Z,5.15
2022-11-12T01:16:22.487Z,7.05
2022-11-12T01:19:10.356Z,6.05
2022-11-12T01:21:56.155Z,6.18
2022-11-12T01:24:41.799Z,5.72
2022-11-12T01:27:27.470Z,6.60
2022-11-12T01:30:13.310Z,7.22
2022-11-12T01:32:59.179Z,7.25
2022-11-12T01:35:45.144Z,6.70
2022-11-12T01:38:35.208Z,6.75
2022-11-12T01:41:25.419Z,6.15
2022-11-12T01:44:26.963Z,6.07
2022-11-12T01:47:26.304Z,6.20
2022-11-12T01:50:22.027Z,5.22
2022-11-12T01:53:12.448Z,5.75
2022-11-12T01:55:59.308Z,6.28
2022-11-12T01:58:49.056Z,6.55
2022-11-12T02:01:36.944Z,6.82
2022-11-12T02:04:27.167Z,7.15
2022-11-12T02:07:13.157Z,6.35
2022-11-12T02:10:01.340Z,7.00
2022-11-12T02:13:05.905Z,7.10
2022-11-12T02:15:51.799Z,7.60
2022-11-12T02:18:37.412Z,7.88
2022-11-12T02:21:25.061Z,8.00
2022-11-12T02:24:13.699Z,9.98
2022-11-12T02:27:00.221Z,7.80
2022-11-12T02:29:48.807Z,8.10
2022-11-12T02:32:34.532Z,6.95
2022-11-12T02:35:20.266Z,7.78
2022-11-12T02:38:07.037Z,7.38
2022-11-12T02:40:53.110Z,7.82
2022-11-12T02:43:39.755Z,9.05
2022-11-12T02:46:25.364Z,8.48
2022-11-12T02:49:11.304Z,8.80
2022-11-12T02:51:56.786Z,7.65
2022-11-12T02:54:42.470Z,8.93
2022-11-12T02:57:30.362Z,7.72
2022-11-12T03:00:16.705Z,10.23
2022-11-12T03:03:02.643Z,10.43
2022-11-12T03:05:56.959Z,11.20
2022-11-12T03:08:42.640Z,9.55
2022-11-12T03:11:28.594Z,10.05
2022-11-12T03:14:14.362Z,9.93
2022-11-12T03:17:00.138Z,9.20
2022-11-12T03:19:45.900Z,9.20
2022-11-12T03:22:31.402Z,9.05
2022-11-12T03:25:17.232Z,9.38
2022-11-12T03:28:11.901Z,8.40
2022-11-12T03:30:59.391Z,10.02
2022-11-12T03:33:44.784Z,7.82
2022-11-12T03:36:30.726Z,8.55
2022-11-12T03:39:16.436Z,8.93
2022-11-12T03:42:01.694Z,8.40
2022-11-12T03:44:47.500Z,8.50
2022-11-12T03:47:32.963Z,9.75
2022-11-12T03:50:20.894Z,8.68
2022-11-12T03:53:06.513Z,8.00
2022-11-12T03:55:52.750Z,8.75
2022-11-12T03:58:38.148Z,8.48
2022-11-12T04:01:24.199Z,8.68
2022-11-12T04:04:10.333Z,8.32
2022-11-12T04:07:14.699Z,8.13
2022-11-12T04:10:00.682Z,8.52
2022-11-12T04:13:04.706Z,9.50
2022-11-12T04:16:10.277Z,8.38
2022-11-12T04:19:17.536Z,8.65
2022-11-12T04:22:09.548Z,9.93
2022-11-12T04:25:13.911Z,7.70
2022-11-12T04:27:59.413Z,7.55
2022-11-12T04:30:45.190Z,6.75
2022-11-12T04:33:30.599Z,7.97
2022-11-12T04:36:16.323Z,6.88
2022-11-12T04:39:02.059Z,7.15
2022-11-12T04:42:06.504Z,7.22
2022-11-12T04:45:04.894Z,8.52
2022-11-12T04:47:50.393Z,6.88
2022-11-12T04:50:36.452Z,7.28
2022-11-12T04:53:22.487Z,7.05
2022-11-12T04:56:07.872Z,7.20
2022-11-12T04:58:53.417Z,7.53
2022-11-12T05:01:39.205Z,6.70
2022-11-12T05:04:27.713Z,6.80
2022-11-12T05:07:13.721Z,8.50
2022-11-12T05:09:59.352Z,7.22
2022-11-12T05:12:45.079Z,7.63
2022-11-12T05:15:30.545Z,7.18
2022-11-12T05:18:16.357Z,7.10
2022-11-12T05:21:22.078Z,7.57
2022-11-12T05:24:08.411Z,7.35
2022-11-12T05:26:54.622Z,9.48
2022-11-12T05:29:40.328Z,7.38
2022-11-12T05:32:26.811Z,8.40
2022-11-12T05:35:12.258Z,8.90
2022-11-12T05:37:57.958Z,7.40
2022-11-12T05:40:46.599Z,5.75
2022-11-12T05:43:32.286Z,5.47
2022-11-12T05:46:18.851Z,6.20
2022-11-12T05:49:04.391Z,6.20
2022-11-12T05:51:50.438Z,5.82
2022-11-12T05:54:35.855Z,6.50
2022-11-12T05:57:21.812Z,6.13
2022-11-12T06:00:08.101Z,5.82
2022-11-12T06:02:58.087Z,7.38
2022-11-12T06:05:43.857Z,5.97
2022-11-12T06:08:29.898Z,7.35
2022-11-12T06:11:15.684Z,6.78
2022-11-12T06:14:02.182Z,9.50
2022-11-12T06:16:48.213Z,7.80
2022-11-12T06:19:33.879Z,6.85
2022-11-12T06:22:19.494Z,7.40
2022-11-12T06:25:05.921Z,7.05
2022-11-12T06:27:51.542Z,8.00
2022-11-12T06:30:37.611Z,8.20
2022-11-12T06:33:23.439Z,5.30
2022-11-12T06:36:10.718Z,6.97
2022-11-12T06:38:56.428Z,8.10
2022-11-12T06:41:41.815Z,9.18
2022-11-12T06:44:27.493Z,7.28
2022-11-12T06:47:12.910Z,7.20
2022-11-12T06:49:58.483Z,9.13
2022-11-12T06:52:44.425Z,7.63
2022-11-12T06:55:30.019Z,7.03
2022-11-12T06:58:16.197Z,7.40
2022-11-12T07:01:15.912Z,7.32
2022-11-12T07:04:01.596Z,7.40
2022-11-12T07:06:47.135Z,9.82
2022-11-12T07:09:32.496Z,8.02
2022-11-12T07:12:18.194Z,8.15
2022-11-12T07:15:04.085Z,7.55
2022-11-12T07:17:49.819Z,13.23
2022-11-12T07:20:35.400Z,8.98
2022-11-12T07:23:21.145Z,7.70
2022-11-12T07:26:18.453Z,10.05
2022-11-12T07:29:04.245Z,9.05
2022-11-12T07:31:50.103Z,8.85
2022-11-12T07:34:35.770Z,7.28
2022-11-12T07:37:21.505Z,8.27
2022-11-12T07:40:07.871Z,7.60
2022-11-12T07:42:53.469Z,7.75
2022-11-12T07:45:39.102Z,10.00
2022-11-12T07:48:24.642Z,8.05
2022-11-12T07:51:14.629Z,8.48
2022-11-12T07:54:00.477Z,10.40
2022-11-12T07:56:46.454Z,10.13
2022-11-12T07:59:32.276Z,10.93
2022-11-12T08:02:18.004Z,8.85
2022-11-12T08:05:06.207Z,9.02
2022-11-12T08:07:57.093Z,9.20
2022-11-12T08:10:42.885Z,8.90
2022-11-12T08:13:28.416Z,8.50
2022-11-12T08:16:13.815Z,8.02
2022-11-12T08:19:00.374Z,8.73
2022-11-12T08:21:46.010Z,8.35
2022-11-12T08:24:31.555Z,10.82
2022-11-12T08:27:17.153Z,10.30
2022-11-12T08:30:03.945Z,9.77
2022-11-12T08:32:59.726Z,11.13
2022-11-12T08:35:45.371Z,10.93
2022-11-12T08:38:31.472Z,9.15
2022-11-12T08:41:17.760Z,9.88
2022-11-12T08:44:08.295Z,8.70
2022-11-12T08:46:54.643Z,7.65
2022-11-12T08:49:45.106Z,10.38
2022-11-12T08:52:33.511Z,10.18
2022-11-12T08:55:19.025Z,9.63
2022-11-12T08:58:05.689Z,10.48
2022-11-12T09:00:51.580Z,8.77
2022-11-12T09:03:37.571Z,7.40
2022-11-12T09:06:23.456Z,7.95
2022-11-12T09:09:09.760Z,8.48
2022-11-12T09:11:55.476Z,8.55
2022-11-12T09:14:41.276Z,10.60
2022-11-12T09:17:29.229Z,10.32
2022-11-12T09:20:15.402Z,11.18
2022-11-12T09:23:04.067Z,9.80
2022-11-12T09:25:49.656Z,9.15
2022-11-12T09:28:35.275Z,7.85
2022-11-12T09:31:21.074Z,7.05
2022-11-12T09:34:06.758Z,7.53
2022-11-12T09:36:52.584Z,7.60
2022-11-12T09:39:38.145Z,7.13
2022-11-12T09:42:27.580Z,8.68
2022-11-12T09:45:26.795Z,8.55
2022-11-12T09:48:17.736Z,7.40
2022-11-12T09:51:27.985Z,9.15
2022-11-12T09:54:19.477Z,8.07
2022-11-12T09:57:09.343Z,7.68
2022-11-12T09:59:54.995Z,6.88
2022-11-12T10:02:51.155Z,7.68
2022-11-12T10:06:00.504Z,8.40
2022-11-12T10:08:52.126Z,7.65
2022-11-12T10:12:10.451Z,7.47
2022-11-12T10:15:36.160Z,7.10
2022-11-12T10:18:21.612Z,7.72
2022-11-12T10:21:13.050Z,7.15
2022-11-12T10:24:00.319Z,7.55
2022-11-12T10:26:46.523Z,7.13
2022-11-12T10:30:05.459Z,7.13
2022-11-12T10:32:53.038Z,6.68
2022-11-12T10:35:39.043Z,6.93
2022-11-12T10:38:28.142Z,6.28
2022-11-12T10:41:27.431Z,7.60
2022-11-12T10:44:17.249Z,7.35
2022-11-12T10:47:28.939Z,8.52
2022-11-12T10:50:31.935Z,8.10
2022-11-12T10:53:30.312Z,6.63
2022-11-12T10:56:31.563Z,6.45
2022-11-12T10:59:24.716Z,6.82
2022-11-12T11:02:19.072Z,7.88
2022-11-12T11:05:29.025Z,6.90
2022-11-12T11:08:14.534Z,7.50
2022-11-12T11:11:25.345Z,7.60
2022-11-12T11:14:22.861Z,7.60
2022-11-12T11:17:18.395Z,8.23
2022-11-12T11:20:24.357Z,7.20
2022-11-12T11:23:30.628Z,8.80
2022-11-12T11:26:48.053Z,6.28
2022-11-12T11:29:48.807Z,6.90
2022-11-12T11:33:11.610Z,6.78
2022-11-12T11:36:11.458Z,7.28
2022-11-12T11:39:24.763Z,6.00
2022-11-12T11:42:52.175Z,5.68
2022-11-12T11:45:49.048Z,6.03
2022-11-12T11:49:06.237Z,6.43
2022-11-12T11:52:06.424Z,6.32
2022-11-12T11:55:10.604Z,6.68
2022-11-12T11:58:34.417Z,5.03
2022-11-12T12:01:52.701Z,5.72
2022-11-12T12:04:51.422Z,5.53
2022-11-12T12:07:58.780Z,5.05
2022-11-12T12:11:09.316Z,5.53
2022-11-12T12:14:01.057Z,5.63
2022-11-12T12:17:12.130Z,5.87
2022-11-12T12:20:30.365Z,5.93
2022-11-12T12:23:38.095Z,6.68
2022-11-12T12:26:48.201Z,7.32
2022-11-12T12:29:36.681Z,7.30
2022-11-12T12:32:32.368Z,6.38
2022-11-12T12:35:30.731Z,5.78
2022-11-12T12:38:23.393Z,5.30
2022-11-12T12:41:27.944Z,5.43
2022-11-12T12:44:14.183Z,7.13
2022-11-12T12:47:02.282Z,13.68
2022-11-12T12:49:50.949Z,7.18
2022-11-12T12:53:02.966Z,6.37
2022-11-12T12:56:03.301Z,5.25
2022-11-12T12:58:56.730Z,5.80
2022-11-12T13:01:42.525Z,5.25
2022-11-12T13:04:52.636Z,5.03
2022-11-12T13:08:03.360Z,5.00
2022-11-12T13:11:01.122Z,5.22
2022-11-12T13:13:47.140Z,5.07
2022-11-12T13:16:51.908Z,5.07
2022-11-12T13:20:08.511Z,4.97
2022-11-12T13:22:55.983Z,5.40
2022-11-12T13:25:41.916Z,4.30
2022-11-12T13:28:27.952Z,4.95
2022-11-12T13:31:29.454Z,5.00
2022-11-12T13:34:30.862Z,3.97
2022-11-12T13:37:21.418Z,4.32
2022-11-12T13:40:31.414Z,4.20
2022-11-12T13:43:32.572Z,4.22
2022-11-12T13:46:32.248Z,3.80
2022-11-12T13:49:19.133Z,5.85
2022-11-12T13:52:08.651Z,4.72
2022-11-12T13:55:26.494Z,4.65
2022-11-12T13:58:35.393Z,5.40
2022-11-12T14:01:23.307Z,4.97
2022-11-12T14:04:16.102Z,4.13
2022-11-12T14:07:13.834Z,4.40
2022-11-12T14:10:02.715Z,3.75
2022-11-12T14:13:20.755Z,3.97
2022-11-12T14:16:21.814Z,4.18
2022-11-12T14:19:13.571Z,4.15
2022-11-12T14:22:17.047Z,4.05
2022-11-12T14:25:09.446Z,4.70
2022-11-12T14:28:06.498Z,4.38
2022-11-12T14:30:52.523Z,4.70
2022-11-12T14:33:38.267Z,4.78
2022-11-12T14:36:24.303Z,4.45
2022-11-12T14:39:16.185Z,4.45
2022-11-12T14:42:01.856Z,5.15
2022-11-12T14:44:47.453Z,4.03
2022-11-12T14:47:33.237Z,4.28
2022-11-12T14:50:30.164Z,4.50
2022-11-12T14:53:32.952Z,4.85
2022-11-12T14:56:35.347Z,4.13
2022-11-12T14:59:22.034Z,5.18
2022-11-12T15:05:25.104Z,5.25
2022-11-12T15:08:12.081Z,4.55
2022-11-12T15:11:18.883Z,5.00
2022-11-12T15:14:20.002Z,5.20
2022-11-12T15:17:06.160Z,5.40
2022-11-12T15:19:52.082Z,5.60
2022-11-12T15:22:38.066Z,5.05
2022-11-12T15:25:25.550Z,6.13
2022-11-12T15:28:22.457Z,5.10
2022-11-12T15:31:20.122Z,5.80
2022-11-12T15:34:34.203Z,6.43
2022-11-12T15:37:19.578Z,6.43
2022-11-12T15:40:15.898Z,6.47
2022-11-12T15:43:02.959Z,5.90
2022-11-12T15:45:59.732Z,6.75
2022-11-12T15:49:19.126Z,6.00
2022-11-12T15:52:04.831Z,6.22
2022-11-12T15:54:50.518Z,5.07
2022-11-12T15:57:41.969Z,5.70
2022-11-12T16:00:33.293Z,5.82
2022-11-12T16:03:21.616Z,6.07
2022-11-12T16:06:11.782Z,5.00
2022-11-12T16:08:57.406Z,5.22
2022-11-12T16:11:42.920Z,5.93
2022-11-12T16:14:28.939Z,5.75
2022-11-12T16:17:17.780Z,6.10
2022-11-12T16:20:12.473Z,5.82
2022-11-12T16:23:01.761Z,5.47
2022-11-12T16:25:47.469Z,6.32
2022-11-12T16:28:33.340Z,6.18
2022-11-12T16:31:20.815Z,6.32
2022-11-12T16:34:06.116Z,6.32
2022-11-12T16:36:51.712Z,6.97
2022-11-12T16:39:37.512Z,6.72
2022-11-12T16:42:22.999Z,6.60
2022-11-12T16:45:09.242Z,7.60
2022-11-12T16:47:56.015Z,6.75
2022-11-12T16:50:41.412Z,10.55
2022-11-12T16:53:27.196Z,9.35
2022-11-12T16:56:21.084Z,8.43
2022-11-12T16:59:06.722Z,8.10
2022-11-12T17:01:52.214Z,6.90
2022-11-12T17:04:37.660Z,7.82
2022-11-12T17:07:23.371Z,7.47
2022-11-12T17:10:09.781Z,6.88
2022-11-12T17:12:55.261Z,8.15
2022-11-12T17:15:41.229Z,8.10
2022-11-12T17:18:26.829Z,8.50
2022-11-12T17:21:18.017Z,8.02
2022-11-12T17:24:03.909Z,9.63
2022-11-12T17:26:49.825Z,9.50
2022-11-12T17:29:36.118Z,9.07
2022-11-12T17:32:22.271Z,8.60
2022-11-12T17:35:13.604Z,8.50
2022-11-12T17:37:58.857Z,9.63
2022-11-12T17:40:44.422Z,9.15
2022-11-12T17:43:30.650Z,9.02
2022-11-12T17:46:16.490Z,8.20
2022-11-12T17:49:02.437Z,8.70
2022-11-12T17:51:47.744Z,7.80
2022-11-12T17:54:34.519Z,8.88
2022-11-12T17:57:20.421Z,8.50
2022-11-12T18:00:07.011Z,9.43
2022-11-12T18:02:55.197Z,8.85
2022-11-12T18:05:44.132Z,9.73
2022-11-12T18:08:29.970Z,9.45
2022-11-12T18:11:16.012Z,11.98
2022-11-12T18:14:07.606Z,11.27
2022-11-12T18:16:53.456Z,10.70
2022-11-12T18:19:38.746Z,11.85
2022-11-12T18:22:24.769Z,13.35
2022-11-12T18:25:10.441Z,12.48
2022-11-12T18:27:56.028Z,13.98
2022-11-12T18:30:41.988Z,12.55
2022-11-12T18:33:28.598Z,12.68
2022-11-12T18:36:20.462Z,15.52
2022-11-12T18:39:06.309Z,13.77
2022-11-12T18:41:52.181Z,11.85
2022-11-12T18:44:37.563Z,12.02
2022-11-12T18:47:23.190Z,13.70
2022-11-12T18:50:09.326Z,17.02
2022-11-12T18:52:55.521Z,16.58
2022-11-12T18:55:41.325Z,16.52
2022-11-12T18:58:32.114Z,14.65
2022-11-12T19:01:22.753Z,13.63
2022-11-12T19:04:11.257Z,13.38
2022-11-12T19:06:56.920Z,13.15
2022-11-12T19:09:42.694Z,10.23
2022-11-12T19:12:28.890Z,15.70
2022-11-12T19:15:14.912Z,16.05
2022-11-12T19:18:01.520Z,16.88
2022-11-12T19:20:48.494Z,18.27
2022-11-12T19:23:34.592Z,16.83
2022-11-12T19:26:20.835Z,18.15
2022-11-12T19:29:06.174Z,16.08
2022-11-12T19:31:51.583Z,15.10
2022-11-12T19:34:40.118Z,15.70
2022-11-12T19:37:34.104Z,15.10
2022-11-12T19:40:20.359Z,15.43
2022-11-12T19:43:05.813Z,16.10
2022-11-12T19:45:51.238Z,16.48
2022-11-12T19:48:39.682Z,16.67
2022-11-12T19:51:25.393Z,16.83
2022-11-12T19:54:11.225Z,16.00
2022-11-12T19:56:57.071Z,15.52
2022-11-12T19:59:42.947Z,17.90
2022-11-12T20:02:29.064Z,20.05
2022-11-12T20:05:14.518Z,16.67
2022-11-12T20:08:00.136Z,15.15
2022-11-12T20:10:45.900Z,14.05
2022-11-12T20:13:31.906Z,13.80
2022-11-12T20:16:24.744Z,12.85
2022-11-12T20:19:11.156Z,14.52
2022-11-12T20:21:56.894Z,13.50
2022-11-12T20:24:42.811Z,15.55
2022-11-12T20:27:28.657Z,15.85
2022-11-12T20:30:14.667Z,14.88
2022-11-12T20:33:01.000Z,15.60
2022-11-12T20:35:46.628Z,14.70
2022-11-12T20:38:32.520Z,16.60
2022-11-12T20:41:21.183Z,22.77
2022-11-12T20:44:07.122Z,20.83
2022-11-12T20:46:52.679Z,27.00
2022-11-12T20:49:38.527Z,29.48
2022-11-12T20:52:24.512Z,26.33
2022-11-12T20:55:10.293Z,23.92
2022-11-12T20:57:59.888Z,24.38
2022-11-12T21:00:45.348Z,23.65
2022-11-12T21:03:31.546Z,22.23
2022-11-12T21:06:23.100Z,19.73
2022-11-12T21:09:08.831Z,20.67
2022-11-12T21:11:54.760Z,20.90
2022-11-12T21:14:40.421Z,21.00
2022-11-12T21:17:26.083Z,20.77
2022-11-12T21:20:11.935Z,20.02
2022-11-12T21:22:57.672Z,18.70
2022-11-12T21:25:43.144Z,18.38
2022-11-12T21:28:29.187Z,18.50
2022-11-12T21:31:17.633Z,19.88
2022-11-12T21:34:04.691Z,17.63
2022-11-12T21:36:50.483Z,17.50
2022-11-12T21:39:36.074Z,18.42
2022-11-12T21:42:21.808Z,16.65
2022-11-12T21:45:07.602Z,13.45
2022-11-12T21:47:53.707Z,16.42
2022-11-12T21:50:39.307Z,15.57
2022-11-12T21:53:24.843Z,15.38
2022-11-12T21:56:18.105Z,16.38
2022-11-12T21:59:04.492Z,13.23
2022-11-12T22:01:50.529Z,14.65
2022-11-12T22:04:36.032Z,12.70
2022-11-12T22:07:22.138Z,11.80
2022-11-12T22:10:07.991Z,12.18
2022-11-12T22:13:20.191Z,13.80
2022-11-12T22:15:59.464Z,14.05
2022-11-12T22:18:47.835Z,13.93
2022-11-12T22:21:39.411Z,12.45
2022-11-12T22:24:25.527Z,13.32
2022-11-12T22:27:11.273Z,13.60
2022-11-12T22:29:57.049Z,12.00
2022-11-12T22:32:42.578Z,13.82
2022-11-12T22:35:28.419Z,12.38
2022-11-12T22:38:13.861Z,12.13
2022-11-12T22:41:08.071Z,12.23
2022-11-12T22:44:01.929Z,13.88
2022-11-12T22:46:47.531Z,11.65
2022-11-12T22:49:33.054Z,13.70
2022-11-12T22:52:18.846Z,14.15
2022-11-12T22:55:04.921Z,12.18
2022-11-12T22:57:50.526Z,14.43
2022-11-12T23:00:36.035Z,13.32
2022-11-12T23:03:21.597Z,11.02
2022-11-12T23:06:07.291Z,13.18
2022-11-12T23:08:53.981Z,13.10
2022-11-12T23:11:40.073Z,13.40
2022-11-12T23:14:25.718Z,11.40
2022-11-12T23:17:11.405Z,13.82
2022-11-12T23:19:57.044Z,10.88
2022-11-12T23:22:42.722Z,12.27
2022-11-12T23:25:28.357Z,12.32
2022-11-12T23:28:14.041Z,11.77
2022-11-12T23:30:59.872Z,13.27
2022-11-12T23:33:50.471Z,11.02
2022-11-12T23:36:36.159Z,10.63
2022-11-12T23:39:21.982Z,12.13
2022-11-12T23:42:07.722Z,12.48
2022-11-12T23:44:53.300Z,11.95
2022-11-12T23:47:39.228Z,12.45
2022-11-12T23:50:25.022Z,9.82
2022-11-12T23:53:11.145Z,12.13
2022-11-12T23:55:56.686Z,13.00
2022-11-12T23:58:42.720Z,12.10
